createdAt,value
2017-10-26T05:05:16.210Z,22.67
2017-10-26T05:07:44.628Z,20.73
2017-10-26T05:10:13.042Z,19.40
2017-10-26T05:12:41.483Z,14.70
2017-10-26T05:15:10.674Z,21.83
2017-10-26T05:17:39.923Z,23.10
2017-10-26T05:20:08.354Z,14.70
2017-10-26T05:22:37.544Z,17.30
2017-10-26T05:25:06.747Z,23.33
2017-10-26T05:27:35.942Z,21.97
2017-10-26T05:30:05.122Z,26.10
2017-10-26T05:32:33.536Z,22.93
2017-10-26T05:35:01.981Z,19.37
2017-10-26T05:37:31.179Z,19.73
2017-10-26T05:39:59.241Z,26.03
2017-10-26T05:42:27.677Z,21.40
2017-10-26T05:44:56.099Z,22.93
2017-10-26T05:47:24.530Z,31.87
2017-10-26T05:49:52.975Z,27.70
2017-10-26T05:52:22.167Z,25.80
2017-10-26T05:54:51.155Z,33.27
2017-10-26T05:57:20.361Z,28.90
2017-10-26T05:59:49.535Z,33.63
2017-10-26T06:02:17.954Z,46.23
2017-10-26T06:04:46.380Z,42.47
2017-10-26T06:07:14.789Z,37.87
2017-10-26T06:09:43.971Z,36.03
2017-10-26T06:12:12.059Z,37.73
2017-10-26T06:14:41.234Z,36.63
2017-10-26T06:17:09.650Z,42.67
2017-10-26T06:19:38.072Z,36.17
2017-10-26T06:22:06.487Z,46.50
2017-10-26T06:24:35.688Z,35.30
2017-10-26T06:27:04.879Z,32.30
2017-10-26T06:29:34.068Z,37.17
2017-10-26T06:32:02.484Z,37.33
2017-10-26T06:34:30.926Z,33.00
2017-10-26T06:36:59.942Z,38.07
2017-10-26T06:39:28.374Z,37.20
2017-10-26T06:41:56.804Z,42.33
2017-10-26T06:44:25.214Z,37.30
2017-10-26T06:46:53.627Z,36.57
2017-10-26T06:49:22.658Z,36.73
2017-10-26T06:51:51.065Z,27.47
2017-10-26T06:54:19.469Z,31.27
2017-10-26T06:56:47.716Z,35.57
2017-10-26T06:59:16.146Z,38.07
2017-10-26T07:01:45.327Z,30.70
2017-10-26T07:04:13.579Z,29.87
2017-10-26T07:06:41.643Z,37.73
2017-10-26T07:09:10.069Z,29.60
2017-10-26T07:11:39.261Z,28.40
2017-10-26T07:14:07.689Z,24.77
2017-10-26T07:16:36.119Z,24.17
2017-10-26T07:19:05.311Z,25.87
2017-10-26T07:21:33.723Z,22.00
2017-10-26T07:24:02.148Z,19.43
2017-10-26T07:26:30.566Z,14.57
2017-10-26T07:28:58.975Z,14.50
2017-10-26T07:31:27.038Z,16.40
2017-10-26T07:33:55.458Z,18.73
2017-10-26T07:36:23.876Z,12.20
2017-10-26T07:38:52.294Z,13.93
2017-10-26T07:41:20.736Z,12.37
2017-10-26T07:43:49.142Z,14.33
2017-10-26T07:46:17.205Z,11.40
2017-10-26T07:48:45.640Z,8.37
2017-10-26T07:51:14.833Z,10.93
2017-10-26T07:53:44.005Z,13.10
2017-10-26T07:56:12.091Z,13.53
2017-10-26T07:58:40.497Z,21.37
2017-10-26T08:01:08.563Z,11.23
2017-10-26T08:03:37.749Z,13.20
2017-10-26T08:06:06.919Z,12.07
2017-10-26T08:08:35.333Z,8.40
2017-10-26T08:11:04.016Z,10.60
2017-10-26T08:13:33.210Z,7.97
2017-10-26T08:16:02.041Z,6.83
2017-10-26T08:18:30.129Z,8.13
2017-10-26T08:20:58.882Z,6.40
2017-10-26T08:23:26.593Z,8.90
2017-10-26T08:25:55.029Z,11.60
2017-10-26T08:28:23.445Z,8.13
2017-10-26T08:30:53.598Z,12.83
2017-10-26T08:33:22.803Z,11.27
2017-10-26T08:35:51.206Z,8.00
2017-10-26T08:38:19.636Z,7.13
2017-10-26T08:40:48.485Z,9.43
2017-10-26T08:43:16.903Z,7.43
2017-10-26T08:45:46.080Z,6.37
2017-10-26T08:48:14.493Z,4.20
2017-10-26T08:50:42.974Z,5.17
2017-10-26T08:53:11.454Z,6.13
2017-10-26T08:55:39.201Z,3.80
2017-10-26T08:58:08.030Z,10.03
2017-10-26T09:00:36.096Z,4.07
2017-10-26T09:03:04.364Z,6.93
2017-10-26T09:05:32.428Z,3.53
2017-10-26T09:08:00.148Z,2.73
2017-10-26T09:10:28.226Z,6.30
2017-10-26T09:12:55.953Z,7.97
2017-10-26T09:15:23.478Z,2.80
2017-10-26T09:17:51.232Z,2.27
2017-10-26T09:20:19.722Z,2.80
2017-10-26T09:22:47.790Z,6.33
2017-10-26T09:25:16.292Z,4.30
2017-10-26T09:27:43.997Z,4.67
2017-10-26T09:30:11.530Z,6.23
2017-10-26T09:32:39.088Z,4.60
2017-10-26T09:35:06.795Z,2.63
2017-10-26T09:37:35.296Z,1.80
2017-10-26T09:40:04.169Z,8.67
2017-10-26T09:42:33.359Z,7.07
2017-10-26T09:45:01.843Z,3.27
2017-10-26T09:47:30.678Z,4.53
2017-10-26T09:49:59.098Z,3.67
2017-10-26T09:52:27.154Z,4.00
2017-10-26T09:54:54.892Z,6.10
2017-10-26T09:57:22.968Z,4.10
2017-10-26T09:59:50.683Z,5.50
2017-10-26T10:02:19.196Z,5.50
2017-10-26T10:04:47.267Z,4.60
2017-10-26T10:07:15.098Z,3.53
2017-10-26T10:09:43.613Z,5.63
2017-10-26T10:12:11.329Z,10.63
2017-10-26T10:14:39.835Z,2.80
2017-10-26T10:17:07.566Z,12.73
2017-10-26T10:19:35.291Z,6.10
2017-10-26T10:22:03.011Z,3.30
2017-10-26T10:24:31.846Z,2.13
2017-10-26T10:26:59.563Z,2.83
2017-10-26T10:29:27.274Z,5.33
2017-10-26T10:31:55.012Z,4.80
2017-10-26T10:34:23.083Z,2.87
2017-10-26T10:36:50.795Z,3.90
2017-10-26T10:39:18.522Z,3.70
2017-10-26T10:41:46.234Z,3.17
2017-10-26T10:44:14.525Z,7.23
2017-10-26T10:46:42.084Z,3.07
2017-10-26T10:49:10.357Z,2.40
2017-10-26T10:51:38.770Z,2.30
2017-10-26T10:54:06.847Z,2.23
2017-10-26T10:56:34.565Z,2.83
2017-10-26T10:59:07.719Z,3.80
2017-10-26T11:01:35.454Z,3.90
2017-10-26T11:04:03.174Z,1.93
2017-10-26T11:06:32.012Z,2.03
2017-10-26T11:08:59.747Z,3.40
2017-10-26T11:11:27.488Z,2.70
2017-10-26T11:13:55.967Z,4.50
2017-10-26T11:16:24.473Z,2.87
2017-10-26T11:18:52.196Z,3.57
2017-10-26T11:21:20.675Z,3.00
2017-10-26T11:23:49.198Z,3.70
2017-10-26T11:26:17.718Z,2.80
2017-10-26T11:28:45.438Z,6.13
2017-10-26T11:31:13.168Z,3.80
2017-10-26T11:33:41.650Z,2.63
2017-10-26T11:36:10.119Z,4.53
2017-10-26T11:38:38.974Z,2.83
2017-10-26T11:41:07.034Z,1.87
2017-10-26T11:43:34.758Z,4.57
2017-10-26T11:46:03.453Z,3.10
2017-10-26T11:48:31.180Z,2.93
2017-10-26T11:50:59.253Z,3.13
2017-10-26T11:53:27.354Z,12.40
2017-10-26T11:55:55.141Z,7.00
2017-10-26T11:58:23.202Z,2.40
2017-10-26T12:00:50.949Z,2.30
2017-10-26T12:03:18.583Z,2.60
2017-10-26T12:05:46.691Z,5.70
2017-10-26T12:08:14.418Z,4.27
2017-10-26T12:10:42.473Z,2.90
2017-10-26T12:13:10.538Z,3.23
2017-10-26T12:15:38.272Z,2.57
2017-10-26T12:18:06.002Z,5.60
2017-10-26T12:20:34.833Z,5.27
2017-10-26T12:23:02.951Z,11.30
2017-10-26T12:25:31.446Z,2.63
2017-10-26T12:27:58.969Z,4.13
2017-10-26T12:30:26.505Z,4.07
2017-10-26T12:32:54.039Z,5.10
2017-10-26T12:35:21.583Z,3.03
2017-10-26T12:37:49.322Z,9.03
2017-10-26T12:40:18.578Z,3.20
2017-10-26T12:42:46.301Z,4.53
2017-10-26T12:45:15.146Z,3.30
2017-10-26T12:47:42.869Z,3.33
2017-10-26T12:50:11.116Z,4.20
2017-10-26T12:52:39.950Z,4.83
2017-10-26T12:55:07.672Z,2.63
2017-10-26T12:57:36.504Z,6.63
2017-10-26T13:00:04.245Z,7.23
2017-10-26T13:02:31.973Z,3.30
2017-10-26T13:05:00.470Z,4.17
2017-10-26T13:07:29.142Z,4.43
2017-10-26T13:09:57.972Z,2.87
2017-10-26T13:12:25.699Z,2.70
2017-10-26T13:14:54.591Z,3.10
2017-10-26T13:17:23.751Z,5.17
2017-10-26T13:19:51.478Z,3.60
2017-10-26T13:22:19.218Z,3.53
2017-10-26T13:24:46.943Z,7.00
2017-10-26T13:27:14.682Z,2.50
2017-10-26T13:29:43.964Z,4.27
2017-10-26T13:32:12.122Z,6.53
2017-10-26T13:34:40.538Z,2.73
2017-10-26T13:37:08.962Z,3.97
2017-10-26T13:39:37.819Z,5.07
2017-10-26T13:42:07.743Z,5.60
2017-10-26T13:44:36.810Z,5.50
2017-10-26T13:47:05.227Z,3.87
2017-10-26T13:49:34.403Z,7.17
2017-10-26T13:52:02.916Z,3.27
2017-10-26T13:54:31.323Z,3.60
2017-10-26T13:56:59.738Z,4.30
2017-10-26T13:59:29.037Z,3.67
2017-10-26T14:01:56.745Z,3.50
2017-10-26T14:04:25.224Z,4.67
2017-10-26T14:06:53.637Z,5.90
2017-10-26T14:09:22.607Z,4.40
2017-10-26T14:11:51.025Z,3.20
2017-10-26T14:14:20.612Z,4.23
2017-10-26T14:16:49.025Z,6.80
2017-10-26T14:19:17.433Z,4.13
2017-10-26T14:21:45.854Z,5.90
2017-10-26T14:24:14.266Z,3.50
2017-10-26T14:26:43.443Z,3.90
2017-10-26T14:29:11.882Z,3.43
2017-10-26T14:31:40.301Z,4.10
2017-10-26T14:34:08.528Z,2.93
2017-10-26T14:36:36.954Z,4.03
2017-10-26T14:39:04.518Z,6.33
2017-10-26T14:41:33.106Z,3.23
2017-10-26T14:44:01.523Z,4.37
2017-10-26T14:46:29.933Z,9.10
2017-10-26T14:48:58.362Z,6.17
2017-10-26T14:51:26.814Z,5.57
2017-10-26T14:53:55.230Z,6.80
2017-10-26T14:56:23.639Z,5.00
2017-10-26T14:58:52.071Z,4.90
2017-10-26T15:01:21.251Z,8.37
2017-10-26T15:03:49.675Z,8.40
2017-10-26T15:06:18.974Z,5.90
2017-10-26T15:08:47.388Z,5.53
2017-10-26T15:11:15.803Z,7.57
2017-10-26T15:13:45.044Z,5.23
2017-10-26T15:16:13.457Z,9.27
2017-10-26T15:18:41.883Z,6.93
2017-10-26T15:21:10.323Z,7.57
2017-10-26T15:23:38.724Z,9.33
2017-10-26T15:26:07.897Z,6.67
2017-10-26T15:28:36.697Z,8.10
2017-10-26T15:31:05.876Z,7.37
2017-10-26T15:33:34.460Z,7.47
2017-10-26T15:36:02.900Z,7.87
2017-10-26T15:38:31.309Z,6.87
2017-10-26T15:40:59.726Z,7.90
2017-10-26T15:43:28.151Z,6.93
2017-10-26T15:45:56.558Z,7.90
2017-10-26T15:48:25.750Z,8.77
2017-10-26T15:50:54.186Z,8.17
2017-10-26T15:53:22.606Z,6.33
2017-10-26T15:55:51.789Z,6.70
2017-10-26T15:58:19.888Z,7.77
2017-10-26T16:00:49.062Z,8.10
2017-10-26T16:03:17.721Z,7.93
2017-10-26T16:05:46.344Z,6.57
2017-10-26T16:08:15.528Z,9.20
2017-10-26T16:10:44.048Z,7.03
2017-10-26T16:13:12.490Z,11.90
2017-10-26T16:15:41.473Z,11.97
2017-10-26T16:18:09.921Z,11.43
2017-10-26T16:20:38.339Z,16.70
2017-10-26T16:23:06.746Z,12.60
2017-10-26T16:25:35.921Z,21.30
2017-10-26T16:28:05.112Z,17.40
2017-10-26T16:30:33.522Z,19.17
2017-10-26T16:33:01.934Z,21.03
2017-10-26T16:35:30.363Z,19.70
2017-10-26T16:37:59.543Z,22.00
2017-10-26T16:40:27.957Z,26.17
2017-10-26T16:42:56.389Z,27.00
2017-10-26T16:45:24.806Z,23.33
2017-10-26T16:47:54.006Z,25.87
2017-10-26T16:50:22.447Z,25.40
2017-10-26T16:52:50.882Z,26.33
2017-10-26T16:55:19.298Z,33.37
2017-10-26T16:57:47.745Z,31.97
2017-10-26T17:00:16.446Z,37.33
2017-10-26T17:02:45.044Z,33.27
2017-10-26T17:05:13.498Z,34.97
2017-10-26T17:07:41.926Z,31.57
2017-10-26T17:10:11.264Z,39.37
2017-10-26T17:12:39.701Z,34.67
2017-10-26T17:15:08.116Z,37.50
2017-10-26T17:17:36.809Z,42.00
2017-10-26T17:20:05.290Z,36.80
2017-10-26T17:22:33.705Z,42.27
2017-10-26T17:25:02.123Z,42.13
2017-10-26T17:27:30.788Z,42.40
2017-10-26T17:29:59.207Z,44.50
2017-10-26T17:32:27.619Z,42.47
2017-10-26T17:34:56.061Z,46.23
2017-10-26T17:37:24.493Z,47.57
2017-10-26T17:39:53.030Z,46.77
2017-10-26T17:42:21.514Z,73.37
2017-10-26T17:44:49.937Z,46.07
2017-10-26T17:47:18.364Z,51.27
2017-10-26T17:49:46.810Z,40.43
2017-10-26T17:52:16.015Z,55.80
2017-10-26T17:54:46.397Z,41.03
2017-10-26T17:57:14.879Z,55.47
2017-10-26T17:59:43.323Z,51.63
2017-10-26T18:02:11.806Z,47.30
2017-10-26T18:04:40.278Z,47.23
2017-10-26T18:07:08.765Z,52.30
2017-10-26T18:09:37.185Z,43.43
2017-10-26T18:12:05.624Z,53.97
2017-10-26T18:14:34.096Z,50.77
2017-10-26T18:17:02.582Z,42.70
2017-10-26T18:19:31.038Z,46.53
2017-10-26T18:21:59.450Z,44.77
2017-10-26T18:24:27.893Z,44.20
2017-10-26T18:26:57.100Z,45.10
2017-10-26T18:29:25.596Z,43.10
2017-10-26T18:31:54.025Z,53.10
2017-10-26T18:34:23.273Z,54.40
2017-10-26T18:36:51.702Z,55.90
2017-10-26T18:39:20.237Z,45.10
2017-10-26T18:41:48.691Z,47.77
2017-10-26T18:44:17.159Z,44.87
2017-10-26T18:46:46.367Z,48.97
2017-10-26T18:49:15.600Z,52.93
2017-10-26T18:51:44.051Z,46.47
2017-10-26T18:54:12.501Z,43.00
2017-10-26T18:56:40.998Z,39.77
2017-10-26T18:59:10.209Z,45.63
2017-10-26T19:01:38.666Z,52.17
2017-10-26T19:04:07.866Z,52.03
2017-10-26T19:06:36.704Z,50.77
2017-10-26T19:09:04.444Z,50.53
2017-10-26T19:11:32.570Z,54.83
2017-10-26T19:14:00.995Z,43.90
2017-10-26T19:16:29.443Z,43.90
2017-10-26T19:18:58.634Z,42.80
2017-10-26T19:21:27.058Z,41.93
2017-10-26T19:23:55.482Z,46.67
2017-10-26T19:26:23.908Z,46.10
2017-10-26T19:28:52.316Z,57.23
2017-10-26T19:31:20.755Z,53.53
2017-10-26T19:33:49.365Z,61.73
2017-10-26T19:36:18.127Z,61.17
2017-10-26T19:38:46.533Z,50.87
2017-10-26T19:41:15.103Z,47.90
2017-10-26T19:43:43.548Z,55.07
2017-10-26T19:46:12.731Z,52.50
2017-10-26T19:48:41.373Z,62.67
2017-10-26T19:51:09.799Z,61.87
2017-10-26T19:53:38.997Z,59.13
2017-10-26T19:56:08.428Z,58.93
2017-10-26T19:58:36.920Z,59.10
2017-10-26T20:01:05.347Z,69.43
2017-10-26T20:03:33.989Z,66.90
2017-10-26T20:06:02.400Z,67.73
2017-10-26T20:08:30.811Z,69.00
2017-10-26T20:11:00.003Z,59.90
2017-10-26T20:13:29.179Z,65.07
2017-10-26T20:15:57.591Z,70.40
2017-10-26T20:18:26.131Z,58.03
2017-10-26T20:20:54.549Z,68.37
2017-10-26T20:23:23.739Z,67.07
2017-10-26T20:25:53.163Z,66.40
2017-10-26T20:28:21.596Z,55.53
2017-10-26T20:30:51.333Z,48.83
2017-10-26T20:33:20.669Z,59.10
2017-10-26T20:35:49.095Z,56.03
2017-10-26T20:38:17.770Z,50.10
2017-10-26T20:40:46.428Z,52.00
2017-10-26T20:43:14.862Z,51.50
2017-10-26T20:45:44.054Z,49.13
2017-10-26T20:48:13.281Z,45.73
2017-10-26T20:51:01.246Z,39.03
2017-10-26T20:53:35.420Z,45.63
2017-10-26T20:59:12.291Z,42.07
2017-10-26T21:01:47.174Z,44.50
2017-10-26T21:04:21.255Z,47.33
2017-10-26T21:06:49.687Z,54.30
2017-10-26T21:09:23.757Z,51.63
2017-10-26T21:11:57.765Z,40.23
2017-10-26T21:14:29.213Z,44.40
2017-10-26T21:16:57.631Z,45.20
2017-10-26T21:19:26.058Z,47.20
2017-10-26T21:21:54.491Z,41.43
2017-10-26T21:24:22.916Z,43.97
2017-10-26T21:26:51.342Z,46.43
2017-10-26T21:29:19.776Z,51.00
2017-10-26T21:31:48.198Z,46.40
2017-10-26T21:34:16.622Z,45.60
2017-10-26T21:36:45.063Z,44.67
2017-10-26T21:39:13.470Z,42.40
2017-10-26T21:41:42.816Z,38.70
2017-10-26T21:44:11.245Z,44.30
2017-10-26T21:46:40.082Z,28.57
2017-10-26T21:49:08.501Z,33.97
2017-10-26T21:51:37.457Z,35.93
2017-10-26T21:54:05.887Z,28.77
2017-10-26T21:56:35.070Z,34.20
2017-10-26T21:59:03.517Z,32.03
2017-10-26T22:01:31.586Z,36.53
2017-10-26T22:03:59.999Z,32.53
2017-10-26T22:06:28.444Z,23.73
2017-10-26T22:08:56.854Z,29.30
2017-10-26T22:11:25.262Z,21.30
2017-10-26T22:13:53.681Z,23.80
2017-10-26T22:16:22.099Z,19.07
2017-10-26T22:18:51.268Z,17.77
2017-10-26T22:21:19.702Z,20.40
2017-10-26T22:23:48.222Z,23.17
2017-10-26T22:26:16.636Z,19.53
2017-10-26T22:28:45.836Z,16.80
2017-10-26T22:31:15.018Z,17.57
2017-10-26T22:33:43.500Z,16.77
2017-10-26T22:36:11.930Z,16.77
2017-10-26T22:38:40.352Z,19.43
2017-10-26T22:41:08.900Z,14.90
2017-10-26T22:43:37.340Z,13.17
2017-10-26T22:46:06.522Z,11.47
2017-10-26T22:48:35.712Z,9.67
2017-10-26T22:51:04.141Z,9.10
2017-10-26T22:53:32.558Z,12.27
2017-10-26T22:56:00.984Z,11.30
2017-10-26T22:58:29.417Z,9.27
2017-10-26T23:00:57.484Z,10.53
2017-10-26T23:03:25.911Z,9.53
2017-10-26T23:05:54.345Z,10.97
2017-10-26T23:08:22.751Z,9.53
2017-10-26T23:10:51.167Z,12.63
2017-10-26T23:13:19.604Z,9.07
2017-10-26T23:15:48.527Z,10.30
2017-10-26T23:18:16.923Z,8.50
2017-10-26T23:20:45.355Z,10.27
2017-10-26T23:23:13.771Z,7.43
2017-10-26T23:25:42.186Z,9.90
2017-10-26T23:28:10.620Z,8.00
2017-10-26T23:30:39.031Z,8.90
2017-10-26T23:33:07.442Z,6.70
2017-10-26T23:35:36.638Z,7.07
2017-10-26T23:38:05.831Z,8.40
2017-10-26T23:40:35.002Z,6.27
2017-10-26T23:43:03.429Z,7.50
2017-10-26T23:45:31.846Z,10.33
2017-10-26T23:48:00.976Z,8.03
2017-10-26T23:50:29.398Z,7.07
2017-10-26T23:52:57.798Z,6.17
2017-10-26T23:55:26.209Z,8.93
2017-10-26T23:57:54.641Z,10.83
